createdAt,value
2022-10-05T00:07:49.491Z,18.60
2022-10-05T00:17:53.152Z,18.80
2022-10-05T00:28:00.201Z,18.90
2022-10-05T00:38:03.981Z,18.90
2022-10-05T00:48:19.377Z,18.20
2022-10-05T00:58:32.370Z,17.90
2022-10-05T01:08:45.224Z,17.80
2022-10-05T01:18:54.612Z,17.60
2022-10-05T01:29:04.831Z,17.60
2022-10-05T01:39:18.477Z,17.50
2022-10-05T01:49:38.260Z,17.50
2022-10-05T02:00:00.467Z,17.40
2022-10-05T02:10:10.347Z,17.20
2022-10-05T02:20:19.564Z,17.00
2022-10-05T02:30:24.760Z,17.10
2022-10-05T02:40:39.406Z,17.10
2022-10-05T02:50:52.925Z,17.20
2022-10-05T03:01:01.537Z,17.10
2022-10-05T03:11:14.095Z,17.30
2022-10-05T03:21:27.886Z,17.10
2022-10-05T03:31:40.929Z,17.10
2022-10-05T03:41:48.889Z,17.00
2022-10-05T03:52:00.777Z,17.00
2022-10-05T04:02:07.666Z,16.90
2022-10-05T04:12:17.659Z,17.10
2022-10-05T04:22:24.183Z,17.10
2022-10-05T04:32:38.805Z,17.10
2022-10-05T04:42:49.279Z,17.10
2022-10-05T04:53:01.830Z,17.00
2022-10-05T05:03:33.258Z,17.00
2022-10-05T05:14:10.532Z,17.00
2022-10-05T05:24:24.839Z,17.10
2022-10-05T05:34:41.024Z,17.00
2022-10-05T05:44:48.395Z,16.90
2022-10-05T05:54:59.012Z,16.60
2022-10-05T06:05:11.539Z,16.70
2022-10-05T06:15:25.459Z,16.70
2022-10-05T06:25:36.539Z,16.90
2022-10-05T06:35:57.863Z,17.10
2022-10-05T06:46:14.214Z,17.50
2022-10-05T06:56:25.539Z,17.90
2022-10-05T07:06:36.612Z,18.50
2022-10-05T07:16:52.634Z,18.90
2022-10-05T07:27:04.820Z,19.50
2022-10-05T07:37:31.434Z,20.30
2022-10-05T07:47:39.965Z,21.00
2022-10-05T07:57:54.111Z,21.30
2022-10-05T08:08:05.827Z,21.40
2022-10-05T08:18:19.135Z,21.70
2022-10-05T08:28:26.951Z,21.90
2022-10-05T08:38:34.577Z,22.30
2022-10-05T08:49:14.884Z,22.40
2022-10-05T08:59:52.417Z,22.50
2022-10-05T09:10:26.636Z,22.70
2022-10-05T09:20:32.685Z,22.70
2022-10-05T09:30:53.575Z,22.90
2022-10-05T09:41:37.953Z,22.80
2022-10-05T09:52:34.764Z,22.90
2022-10-05T10:03:14.004Z,23.50
2022-10-05T10:13:39.330Z,23.70
2022-10-05T10:24:21.373Z,24.00
2022-10-05T10:34:45.035Z,24.10
2022-10-05T10:45:28.813Z,24.60
2022-10-05T10:55:38.831Z,24.90
2022-10-05T11:06:12.038Z,25.20
2022-10-05T11:16:48.264Z,25.10
2022-10-05T11:27:13.777Z,26.00
2022-10-05T11:38:02.296Z,26.10
2022-10-05T11:48:36.023Z,27.30
2022-10-05T11:58:48.447Z,27.10
2022-10-05T12:09:06.304Z,27.10
2022-10-05T12:19:17.903Z,27.40
2022-10-05T12:29:28.836Z,26.90
2022-10-05T12:39:42.395Z,26.90
2022-10-05T12:50:05.080Z,27.90
2022-10-05T13:00:13.283Z,27.00
2022-10-05T13:10:30.707Z,27.60
2022-10-05T13:20:42.913Z,28.00
2022-10-05T13:30:55.146Z,29.00
2022-10-05T13:41:11.908Z,28.40
2022-10-05T13:51:20.518Z,28.30
2022-10-05T14:01:37.389Z,29.10
2022-10-05T14:11:49.924Z,29.20
2022-10-05T14:22:01.896Z,28.70
2022-10-05T14:32:16.323Z,28.70
2022-10-05T14:42:24.183Z,29.10
2022-10-05T14:52:32.788Z,28.40
2022-10-05T15:02:54.779Z,29.10
2022-10-05T15:13:01.936Z,29.00
2022-10-05T15:23:25.186Z,29.10
2022-10-05T15:33:35.685Z,28.30
2022-10-05T15:43:54.843Z,26.70
2022-10-05T15:54:26.240Z,26.20
2022-10-05T16:04:43.878Z,26.10
2022-10-05T16:15:06.764Z,24.70
2022-10-05T16:25:18.856Z,24.40
2022-10-05T16:35:32.065Z,24.30
2022-10-05T16:45:48.686Z,24.10
2022-10-05T16:55:57.183Z,23.90
2022-10-05T17:06:25.161Z,23.60
2022-10-05T17:16:38.541Z,23.40
2022-10-05T17:26:57.869Z,23.30
2022-10-05T17:37:19.106Z,23.00
2022-10-05T17:47:57.910Z,22.80
2022-10-05T17:58:23.156Z,22.50
2022-10-05T18:08:38.210Z,22.60
2022-10-05T18:18:57.595Z,22.30
2022-10-05T18:29:38.865Z,21.60
2022-10-05T18:40:17.163Z,21.00
2022-10-05T18:50:30.154Z,20.80
2022-10-05T19:00:53.205Z,20.60
2022-10-05T19:11:05.740Z,20.50
2022-10-05T19:21:21.546Z,20.40
2022-10-05T19:31:34.810Z,20.30
2022-10-05T19:41:55.009Z,20.20
2022-10-05T19:52:00.298Z,20.20
2022-10-05T20:02:04.192Z,20.10
2022-10-05T20:12:09.314Z,20.30
2022-10-05T20:22:28.091Z,20.40
2022-10-05T20:32:33.049Z,20.40
2022-10-05T20:42:36.541Z,20.60
2022-10-05T20:52:42.803Z,20.40
2022-10-05T21:02:46.973Z,20.30
2022-10-05T21:12:52.294Z,20.20
2022-10-05T21:22:56.117Z,20.00
2022-10-05T21:33:01.090Z,19.70
2022-10-05T21:43:04.932Z,19.70
2022-10-05T21:53:12.590Z,19.70
2022-10-05T22:03:16.503Z,19.80
2022-10-05T22:13:26.280Z,19.60
2022-10-05T22:23:29.911Z,19.70
2022-10-05T22:33:35.311Z,19.70
2022-10-05T22:43:39.593Z,19.70
2022-10-05T22:53:44.791Z,19.60
2022-10-05T23:03:48.388Z,19.50
2022-10-05T23:13:53.908Z,19.50
2022-10-05T23:23:57.545Z,19.40
2022-10-05T23:34:02.615Z,19.30
2022-10-05T23:44:06.599Z,19.40
2022-10-05T23:54:11.617Z,19.40
